Time;durP1;ratioP1;P1;durP2;ratioP2;P2;SDS_P1;SDS_P2;PMS_P1;PMS_P2;Temp;Humidity;BMP_temperature;BMP_pressure;BME280_temperature;BME280_humidity;BME280_pressure;Samples;Min_cycle;Max_cycle;Signal;HPM_P1;HPM_P2
2022/10/16 00:01:41;;;;;;;;;;;;;;;15.05;85.60;97906.13;5072654;28;19977;-56
2022/10/16 00:04:09;;;;;;;;;;;;;;;15.07;85.42;97906.56;5070390;28;19929;-57
2022/10/16 00:06:37;;;;;;;;;;;;;;;15.08;85.57;97902.72;5072743;28;20181;-57
2022/10/16 08:55:32;;;;;;;;;;;;;;;16.29;82.51;98198.16;5030598;28;20374;-56
2022/10/16 08:58:00;;;;;;;;;;;;;;;16.35;82.25;98207.75;5027840;28;19929;-57
2022/10/16 09:00:27;;;;;;;;;;;;;;;16.42;82.22;98203.34;5026592;28;19925;-57
2022/10/16 09:03:04;;;;;;;;;;;;;;;16.47;82.32;98203.09;5027951;28;19935;-57
2022/10/16 09:05:38;;;;;;;;;;;;;;;16.57;80.92;98204.59;5028929;28;20102;-57
2022/10/16 09:08:08;;;;;;;;;;;;;;;16.64;80.39;98202.06;5043815;28;19925;-57
2022/10/16 09:10:43;;;;;;;;;;;;;;;16.74;80.39;98215.34;5030883;28;20024;-57
2022/10/16 09:13:14;;;;;;;;;;;;;;;16.81;79.36;98220.25;5029410;28;19925;-57
2022/10/16 09:15:43;;;;;;;;;;;;;;;16.89;78.92;98202.09;5023668;28;20264;-57
2022/10/16 09:18:13;;;;;;;;;;;;;;;16.97;78.96;98212.13;5028547;28;19929;-57
2022/10/16 09:20:43;;;;;;;;;;;;;;;17.08;79.04;98202.25;5028437;28;19925;-57
2022/10/16 09:23:14;;;;;;;;;;;;;;;17.18;78.63;98209.22;5026321;28;19961;-57
2022/10/16 09:25:45;;;;;;;;;;;;;;;17.26;78.00;98220.06;5030067;28;19956;-57
2022/10/16 09:28:13;;;;;;;;;;;;;;;17.31;77.03;98215.47;5031140;28;19929;-57
2022/10/16 09:30:41;;;;;;;;;;;;;;;17.33;76.43;98224.16;5057369;28;19929;-57
2022/10/16 09:33:10;;;;;;;;;;;;;;;17.34;75.52;98225.75;5031786;28;20055;-57
2022/10/16 09:35:38;;;;;;;;;;;;;;;17.38;75.13;98226.66;5030550;28;20023;-58
2022/10/16 09:38:07;;;;;;;;;;;;;;;17.36;75.04;98228.94;5031579;28;20027;-57
2022/10/16 09:40:35;;;;;;;;;;;;;;;17.23;74.39;98231.72;5030792;28;19932;-57
2022/10/16 09:43:07;;;;;;;;;;;;;;;17.20;74.57;98235.16;5044734;28;19925;-58
2022/10/16 09:45:35;;;;;;;;;;;;;;;17.13;74.57;98234.97;5025702;28;20020;-57
2022/10/16 09:48:09;;;;;;;;;;;;;;;17.05;75.44;98238.66;5031432;28;19979;-57
2022/10/16 09:50:38;;;;;;;;;;;;;;;16.97;75.72;98248.59;5029370;28;20397;-57
2022/10/16 09:53:07;;;;;;;;;;;;;;;16.96;75.53;98244.25;5040551;28;19932;-58
2022/10/16 09:55:35;;;;;;;;;;;;;;;16.91;75.60;98236.25;5067951;28;20300;-57
2022/10/16 09:58:03;;;;;;;;;;;;;;;16.88;76.33;98230.66;5070996;28;19925;-57
2022/10/16 10:00:32;;;;;;;;;;;;;;;16.86;77.16;98235.69;5064385;28;20005;-58
2022/10/16 10:03:03;;;;;;;;;;;;;;;16.87;76.86;98240.81;5070540;28;19924;-58
2022/10/16 10:05:31;;;;;;;;;;;;;;;16.91;77.87;98251.91;5085614;28;19932;-57
2022/10/16 10:08:00;;;;;;;;;;;;;;;16.95;77.66;98250.09;5070980;28;20369;-57
2022/10/16 10:10:28;;;;;;;;;;;;;;;17.01;76.88;98252.25;5068430;28;19924;-57
2022/10/16 10:12:56;;;;;;;;;;;;;;;17.12;76.13;98241.59;5070254;28;19931;-57
2022/10/16 10:15:24;;;;;;;;;;;;;;;17.24;75.86;98238.81;5066828;28;20796;-57
2022/10/16 10:17:54;;;;;;;;;;;;;;;17.36;75.47;98243.47;5071933;28;19932;-56
2022/10/16 10:20:23;;;;;;;;;;;;;;;17.49;74.52;98238.75;5071587;28;19931;-57
2022/10/16 10:22:51;;;;;;;;;;;;;;;17.64;74.24;98251.75;5071898;28;19963;-57
2022/10/16 10:25:46;;;;;;;;;;;;;;;17.76;74.90;98246.22;5083332;28;19947;-57
2022/10/16 10:28:19;;;;;;;;;;;;;;;17.87;73.58;98242.97;5021817;28;19936;-57
2022/10/16 10:30:49;;;;;;;;;;;;;;;17.94;74.47;98249.47;5062577;28;19928;-57
2022/10/16 10:33:25;;;;;;;;;;;;;;;17.96;72.91;98247.19;5071239;28;19928;-58
2022/10/16 10:35:55;;;;;;;;;;;;;;;18.06;72.32;98245.88;5076231;28;19931;-57
2022/10/16 10:38:29;;;;;;;;;;;;;;;18.03;73.16;98246.56;5053637;28;20318;-57
2022/10/16 10:44:22;;;;;;;;;;;;;;;18.22;73.34;98243.94;5071919;28;19970;-57
2022/10/16 10:46:51;;;;;;;;;;;;;;;18.33;72.49;98245.00;5066305;28;20404;-58
2022/10/16 10:49:49;;;;;;;;;;;;;;;18.44;71.27;98245.28;5072736;28;20060;-58
2022/10/16 10:52:26;;;;;;;;;;;;;;;18.49;71.51;98249.72;5072734;28;19929;-57
2022/10/16 10:54:55;;;;;;;;;;;;;;;18.50;70.54;98246.59;5081369;28;20354;-57
2022/10/16 10:57:26;;;;;;;;;;;;;;;18.58;71.38;98250.31;5072808;28;19928;-57
2022/10/16 11:00:01;;;;;;;;;;;;;;;18.62;70.95;98244.91;5056191;28;19924;-57
2022/10/16 11:02:32;;;;;;;;;;;;;;;18.64;70.94;98251.63;5069910;28;20278;-57
2022/10/16 11:05:07;;;;;;;;;;;;;;;18.63;70.75;98252.81;5074626;28;19928;-58
2022/10/16 11:07:35;;;;;;;;;;;;;;;18.64;70.40;98254.41;5071684;28;19928;-57
2022/10/16 11:10:04;;;;;;;;;;;;;;;18.65;70.75;98255.22;5055759;28;19925;-57
2022/10/16 11:12:33;;;;;;;;;;;;;;;18.64;70.38;98248.09;5052700;28;19924;-57
2022/10/16 11:15:05;;;;;;;;;;;;;;;18.65;69.84;98255.22;5067979;28;19925;-56
2022/10/16 11:17:35;;;;;;;;;;;;;;;18.65;70.01;98253.25;5067210;28;19955;-57
2022/10/16 11:20:06;;;;;;;;;;;;;;;18.66;69.61;98249.34;5072660;28;19955;-57
2022/10/16 11:22:35;;;;;;;;;;;;;;;18.77;69.45;98249.63;5073394;28;19935;-57
2022/10/16 11:25:05;;;;;;;;;;;;;;;18.78;69.26;98254.78;5073371;28;19955;-57
2022/10/16 11:30:53;;;;;;;;;;;;;;;18.86;68.24;98258.50;5066605;28;20015;-57
2022/10/16 11:33:26;;;;;;;;;;;;;;;18.89;68.65;98259.75;5074009;28;19955;-58
2022/10/16 11:35:56;;;;;;;;;;;;;;;18.92;68.90;98259.03;5072373;28;19928;-58
2022/10/16 11:38:27;;;;;;;;;;;;;;;18.92;69.24;98259.03;5071161;28;19928;-57
2022/10/16 11:40:57;;;;;;;;;;;;;;;18.95;69.33;98261.06;5052652;28;20022;-57
2022/10/16 11:43:26;;;;;;;;;;;;;;;18.99;69.47;98253.69;5070744;28;19931;-57
2022/10/16 11:45:55;;;;;;;;;;;;;;;19.02;69.24;98252.97;5062507;28;19932;-57
2022/10/16 11:48:24;;;;;;;;;;;;;;;19.09;68.85;98259.44;5068412;28;19940;-57
2022/10/16 11:50:54;;;;;;;;;;;;;;;19.22;68.34;98262.06;5076009;28;19928;-57
2022/10/16 11:53:25;;;;;;;;;;;;;;;19.30;68.35;98258.31;5074465;28;19928;-57
2022/10/16 11:55:59;;;;;;;;;;;;;;;19.35;68.58;98264.34;5065123;28;19925;-57
2022/10/16 11:58:28;;;;;;;;;;;;;;;19.39;68.33;98267.19;5072089;28;19939;-57
2022/10/16 12:00:58;;;;;;;;;;;;;;;19.39;67.95;98275.44;5067478;28;20076;-57
2022/10/16 12:03:27;;;;;;;;;;;;;;;19.41;67.49;98266.81;5073144;28;19978;-57
2022/10/16 12:06:18;;;;;;;;;;;;;;;19.30;67.15;98270.13;5069594;28;19925;-57
2022/10/16 12:08:47;;;;;;;;;;;;;;;19.29;67.62;98276.00;5069378;28;19924;-58
2022/10/16 12:11:25;;;;;;;;;;;;;;;19.28;67.11;98269.72;5070167;28;19925;-58
2022/10/16 12:13:53;;;;;;;;;;;;;;;19.29;67.07;98267.75;5086998;28;19931;-57
2022/10/16 12:16:22;;;;;;;;;;;;;;;19.27;67.49;98265.34;5067992;28;19940;-57
2022/10/16 12:18:50;;;;;;;;;;;;;;;19.23;67.46;98272.75;5078174;28;19924;-57
2022/10/16 12:21:19;;;;;;;;;;;;;;;19.24;67.33;98266.06;5073673;28;19934;-57
2022/10/16 12:23:51;;;;;;;;;;;;;;;19.32;67.40;98267.81;5071094;28;20430;-57
2022/10/16 12:29:24;;;;;;;;;;;;;;;19.53;66.79;98255.66;5071805;28;19928;-57
2022/10/16 12:31:52;;;;;;;;;;;;;;;19.55;66.45;98258.84;5079810;28;19928;-57
2022/10/16 12:34:27;;;;;;;;;;;;;;;19.57;66.46;98259.28;5071412;28;19929;-57
2022/10/16 12:36:55;;;;;;;;;;;;;;;19.56;66.68;98260.44;5071492;28;19932;-58
2022/10/16 12:39:24;;;;;;;;;;;;;;;19.53;65.71;98261.97;5070514;28;19925;-57
2022/10/16 12:42:01;;;;;;;;;;;;;;;19.45;65.61;98254.72;5071558;28;19986;-57
2022/10/16 12:47:36;;;;;;;;;;;;;;;19.35;65.55;98247.81;5064594;28;19994;-57
2022/10/16 12:50:23;;;;;;;;;;;;;;;19.34;66.21;98254.50;5066574;28;20015;-57
2022/10/16 12:52:52;;;;;;;;;;;;;;;19.45;65.89;98251.16;5069711;28;20024;-57
2022/10/16 12:55:22;;;;;;;;;;;;;;;19.54;65.06;98254.47;5069499;28;19985;-57
2022/10/16 12:58:02;;;;;;;;;;;;;;;19.56;65.34;98254.94;5071375;28;20373;-57
2022/10/16 13:00:33;;;;;;;;;;;;;;;19.62;65.53;98259.03;5080741;28;19925;-57
2022/10/16 13:03:22;;;;;;;;;;;;;;;19.65;66.32;98252.78;5072906;28;19928;-57
2022/10/16 13:05:54;;;;;;;;;;;;;;;19.78;65.72;98257.00;5067522;28;20333;-60
2022/10/16 13:08:26;;;;;;;;;;;;;;;19.81;65.69;98260.97;5065283;28;19924;-57
2022/10/16 13:10:59;;;;;;;;;;;;;;;19.89;64.85;98260.75;5068665;28;19936;-57
2022/10/16 13:13:37;;;;;;;;;;;;;;;19.96;65.01;98265.59;5061061;28;20015;-57
2022/10/16 13:16:08;;;;;;;;;;;;;;;20.03;65.34;98267.72;5079690;28;19925;-57
2022/10/16 13:18:39;;;;;;;;;;;;;;;20.13;64.26;98272.63;5071532;28;19931;-57
2022/10/16 13:21:10;;;;;;;;;;;;;;;20.24;64.21;98273.63;5070115;28;19938;-57
2022/10/16 13:23:41;;;;;;;;;;;;;;;20.35;63.87;98273.84;5070067;28;20023;-57
2022/10/16 13:26:13;;;;;;;;;;;;;;;20.34;63.61;98278.53;5069961;28;20023;-57
2022/10/16 13:28:42;;;;;;;;;;;;;;;20.32;63.70;98278.09;5068770;28;19929;-57
2022/10/16 13:31:12;;;;;;;;;;;;;;;20.18;63.71;98269.56;5065497;28;20362;-57
2022/10/16 13:33:41;;;;;;;;;;;;;;;20.16;63.57;98271.91;5070380;28;19924;-57
2022/10/16 13:36:18;;;;;;;;;;;;;;;20.08;63.70;98270.16;5069896;28;20362;-57
2022/10/16 13:38:47;;;;;;;;;;;;;;;19.98;64.41;98263.31;5070705;28;19928;-57
2022/10/16 13:41:17;;;;;;;;;;;;;;;19.88;64.92;98272.94;5070751;28;20431;-57
2022/10/16 13:43:46;;;;;;;;;;;;;;;19.81;65.28;98275.53;5067655;28;19981;-57
2022/10/16 13:46:15;;;;;;;;;;;;;;;19.80;65.21;98273.97;5055595;28;19924;-57
2022/10/16 13:48:43;;;;;;;;;;;;;;;19.88;64.84;98270.19;5064926;28;19929;-58
2022/10/16 13:51:36;;;;;;;;;;;;;;;19.99;64.99;98277.88;5050136;28;19925;-57
2022/10/16 13:54:04;;;;;;;;;;;;;;;20.07;64.41;98285.13;5049684;28;19931;-57
2022/10/16 13:56:34;;;;;;;;;;;;;;;20.09;64.81;98288.31;5065032;28;19924;-57
2022/10/16 13:59:05;;;;;;;;;;;;;;;20.15;64.15;98281.34;5049824;28;19937;-57
2022/10/16 14:01:33;;;;;;;;;;;;;;;20.17;63.95;98286.47;5055806;28;19931;-58
2022/10/16 14:04:02;;;;;;;;;;;;;;;20.14;64.41;98285.28;5071488;28;19924;-57
2022/10/16 14:06:30;;;;;;;;;;;;;;;20.07;64.05;98285.91;5075965;28;19928;-57
2022/10/16 14:08:59;;;;;;;;;;;;;;;20.05;64.19;98291.00;5076722;28;19932;-57
2022/10/16 14:11:52;;;;;;;;;;;;;;;20.11;64.01;98297.03;5057730;28;20025;-57
2022/10/16 14:14:22;;;;;;;;;;;;;;;20.13;64.17;98301.03;5079526;28;20446;-57
2022/10/16 14:16:50;;;;;;;;;;;;;;;20.18;63.73;98299.09;5066168;28;19928;-58
2022/10/16 14:19:19;;;;;;;;;;;;;;;20.16;63.65;98293.97;5077380;28;19932;-58
2022/10/16 14:21:47;;;;;;;;;;;;;;;20.20;63.50;98302.31;5076812;28;20285;-58
2022/10/16 14:24:22;;;;;;;;;;;;;;;20.19;64.22;98303.47;5077910;28;19931;-58
2022/10/16 14:26:50;;;;;;;;;;;;;;;20.20;64.06;98294.84;5076825;28;19935;-57
2022/10/16 14:29:19;;;;;;;;;;;;;;;20.21;63.41;98296.44;5078187;28;19931;-57
2022/10/16 14:31:58;;;;;;;;;;;;;;;20.22;63.15;98292.50;5069841;28;19932;-57
2022/10/16 14:34:28;;;;;;;;;;;;;;;20.23;63.32;98290.53;5076821;28;19928;-57
2022/10/16 14:36:55;;;;;;;;;;;;;;;20.22;63.15;98297.22;5075398;28;19954;-58
2022/10/16 14:39:24;;;;;;;;;;;;;;;20.13;63.46;98294.69;5077297;28;19975;-57
2022/10/16 14:41:52;;;;;;;;;;;;;;;19.98;63.76;98290.09;5077134;28;20408;-57
2022/10/16 14:44:28;;;;;;;;;;;;;;;19.86;64.12;98280.78;5079133;28;19959;-58
2022/10/16 14:47:23;;;;;;;;;;;;;;;19.73;64.76;98292.31;5069871;28;19937;-58
2022/10/16 14:49:54;;;;;;;;;;;;;;;19.65;64.93;98290.56;5070641;28;19956;-57
2022/10/16 14:52:22;;;;;;;;;;;;;;;19.58;64.98;98285.69;5076922;28;19939;-57
2022/10/16 14:54:54;;;;;;;;;;;;;;;19.56;65.17;98293.53;5072265;28;20056;-57
2022/10/16 14:57:25;;;;;;;;;;;;;;;19.53;65.67;98291.47;5035403;28;19987;-57
2022/10/16 14:59:53;;;;;;;;;;;;;;;19.51;65.46;98296.56;5035199;28;19925;-58
2022/10/16 15:02:24;;;;;;;;;;;;;;;19.48;65.71;98302.78;5030194;28;20421;-56
2022/10/16 15:04:54;;;;;;;;;;;;;;;19.47;66.34;98296.47;5035790;28;20017;-57
2022/10/16 15:07:22;;;;;;;;;;;;;;;19.42;66.53;98299.50;5035022;28;19925;-56
2022/10/16 15:09:50;;;;;;;;;;;;;;;19.38;66.69;98304.13;5036689;28;19925;-57
2022/10/16 15:12:18;;;;;;;;;;;;;;;19.35;66.57;98302.13;5039364;28;19933;-57
2022/10/16 15:14:46;;;;;;;;;;;;;;;19.34;66.60;98303.28;5035430;28;20286;-58
2022/10/16 15:17:14;;;;;;;;;;;;;;;19.32;66.74;98306.38;5022897;28;19932;-58
2022/10/16 15:19:43;;;;;;;;;;;;;;;19.28;68.44;98300.00;5030699;28;19936;-57
2022/10/16 15:22:13;;;;;;;;;;;;;;;19.23;69.34;98302.22;5031161;28;19936;-59
2022/10/16 15:28:24;;;;;;;;;;;;;;;19.09;69.31;98305.47;5034215;28;20391;-58
2022/10/16 15:30:52;;;;;;;;;;;;;;;19.01;70.26;98306.44;5027697;28;19929;-57
2022/10/16 15:33:22;;;;;;;;;;;;;;;18.93;70.67;98304.69;5032730;28;19972;-57
2022/10/16 15:35:52;;;;;;;;;;;;;;;18.87;73.17;98317.13;5031428;28;19929;-58
2022/10/16 15:38:27;;;;;;;;;;;;;;;18.79;73.37;98327.13;5032698;28;20008;-58
2022/10/16 15:40:57;;;;;;;;;;;;;;;18.73;72.41;98318.34;5029566;28;19929;-59
2022/10/16 15:43:26;;;;;;;;;;;;;;;18.69;72.48;98322.97;5031555;28;19947;-59
2022/10/16 15:45:59;;;;;;;;;;;;;;;18.70;71.12;98327.34;5026040;28;19995;-61
2022/10/16 15:48:27;;;;;;;;;;;;;;;18.72;70.06;98327.75;5031858;28;19960;-59
2022/10/16 15:50:55;;;;;;;;;;;;;;;18.73;70.08;98328.56;5027736;28;20016;-59
2022/10/16 15:53:25;;;;;;;;;;;;;;;18.73;70.21;98339.56;5052877;28;20481;-58
2022/10/16 15:55:56;;;;;;;;;;;;;;;18.68;70.26;98337.88;5086064;28;19932;-57
2022/10/16 15:58:24;;;;;;;;;;;;;;;18.66;70.41;98334.66;5050342;28;19971;-57
2022/10/16 16:00:55;;;;;;;;;;;;;;;18.61;70.87;98332.16;5047520;28;19929;-58
2022/10/16 16:03:23;;;;;;;;;;;;;;;18.56;71.52;98332.44;5052740;28;19979;-58
2022/10/16 16:05:51;;;;;;;;;;;;;;;18.50;71.59;98339.34;5048600;28;19925;-57
2022/10/16 16:08:20;;;;;;;;;;;;;;;18.44;71.55;98344.31;5052397;28;19931;-57
2022/10/16 16:10:59;;;;;;;;;;;;;;;18.40;73.28;98350.88;5052353;28;19925;-57
2022/10/16 16:13:27;;;;;;;;;;;;;;;18.33;73.14;98338.53;5049825;28;19947;-57
2022/10/16 16:15:58;;;;;;;;;;;;;;;18.28;72.08;98336.03;5044339;28;19924;-57
2022/10/16 16:18:26;;;;;;;;;;;;;;;18.25;73.87;98339.47;5049167;28;19979;-56
2022/10/16 16:20:54;;;;;;;;;;;;;;;18.20;75.43;98342.47;5054143;28;19944;-57
2022/10/16 16:23:22;;;;;;;;;;;;;;;18.15;75.11;98345.47;5051619;28;19929;-57
2022/10/16 16:26:08;;;;;;;;;;;;;;;18.12;75.47;98345.41;5051562;28;19925;-57
2022/10/16 16:28:36;;;;;;;;;;;;;;;18.08;76.15;98350.00;5048517;28;20365;-57
2022/10/16 16:31:04;;;;;;;;;;;;;;;18.04;76.04;98350.66;5074397;28;19925;-57
2022/10/16 16:33:33;;;;;;;;;;;;;;;18.02;75.60;98346.69;5050710;28;19929;-57
2022/10/16 16:36:01;;;;;;;;;;;;;;;18.00;75.23;98348.97;5052493;28;20382;-57
2022/10/16 16:38:29;;;;;;;;;;;;;;;17.96;75.85;98357.13;5051288;28;20514;-57
2022/10/16 16:40:57;;;;;;;;;;;;;;;17.94;74.33;98369.63;5052221;28;20356;-57
2022/10/16 16:43:27;;;;;;;;;;;;;;;17.92;75.76;98371.91;5050035;28;20014;-57
2022/10/16 16:45:55;;;;;;;;;;;;;;;17.90;76.09;98371.47;5037776;28;19929;-57
2022/10/16 16:48:23;;;;;;;;;;;;;;;17.88;76.20;98382.81;5047099;28;20306;-57
2022/10/16 16:50:51;;;;;;;;;;;;;;;17.87;74.64;98380.41;5051118;28;20415;-56
2022/10/16 16:53:19;;;;;;;;;;;;;;;17.87;75.61;98374.91;5055565;28;19925;-57
2022/10/16 16:55:48;;;;;;;;;;;;;;;17.86;74.83;98381.56;5071405;28;20373;-57
2022/10/16 16:58:16;;;;;;;;;;;;;;;17.87;75.45;98386.69;5071727;28;20023;-58
2022/10/16 17:00:47;;;;;;;;;;;;;;;17.87;75.32;98391.41;5063657;28;20582;-57
2022/10/16 17:03:23;;;;;;;;;;;;;;;17.87;74.47;98392.19;5058768;28;19928;-56
2022/10/16 17:05:56;;;;;;;;;;;;;;;17.89;74.58;98394.59;5052288;28;19932;-57
2022/10/16 17:08:24;;;;;;;;;;;;;;;17.87;75.81;98403.19;5071275;28;19924;-57
2022/10/16 17:10:54;;;;;;;;;;;;;;;17.84;75.04;98403.06;5071272;28;20424;-57
2022/10/16 17:13:22;;;;;;;;;;;;;;;17.84;75.85;98400.31;5079355;28;19929;-56
2022/10/16 17:15:52;;;;;;;;;;;;;;;17.80;75.24;98406.53;5064976;28;19924;-59
2022/10/16 17:18:20;;;;;;;;;;;;;;;17.80;75.46;98406.53;5070674;28;19931;-57
2022/10/16 17:20:48;;;;;;;;;;;;;;;17.81;75.29;98407.34;5068302;28;19925;-57
2022/10/16 17:23:17;;;;;;;;;;;;;;;17.79;75.30;98406.91;5069160;28;19932;-58
2022/10/16 17:25:46;;;;;;;;;;;;;;;17.78;75.49;98411.56;5085338;28;19925;-57
2022/10/16 17:28:14;;;;;;;;;;;;;;;17.76;75.86;98411.13;5070086;28;19933;-57
2022/10/16 17:30:42;;;;;;;;;;;;;;;17.75;75.90;98406.78;5062629;28;19928;-57
2022/10/16 17:33:12;;;;;;;;;;;;;;;17.76;75.71;98410.31;5069358;28;20415;-57
2022/10/16 17:35:42;;;;;;;;;;;;;;;17.75;75.98;98412.28;5070299;28;19928;-57
2022/10/16 17:38:10;;;;;;;;;;;;;;;17.72;77.04;98412.94;5068164;28;19928;-56
2022/10/16 17:40:38;;;;;;;;;;;;;;;17.69;76.96;98412.84;5070293;28;19925;-57
2022/10/16 17:43:07;;;;;;;;;;;;;;;17.66;77.08;98419.00;5071133;28;19928;-57
2022/10/16 17:45:36;;;;;;;;;;;;;;;17.63;77.49;98422.44;5077133;28;19972;-57
2022/10/16 17:48:06;;;;;;;;;;;;;;;17.61;77.49;98416.50;5070435;28;19956;-57
2022/10/16 17:50:36;;;;;;;;;;;;;;;17.60;77.08;98421.19;5070262;28;19928;-57
2022/10/16 17:53:03;;;;;;;;;;;;;;;17.60;77.59;98417.63;5076096;28;20072;-57
2022/10/16 17:55:32;;;;;;;;;;;;;;;17.57;77.61;98419.13;5068092;28;19960;-57
2022/10/16 17:57:59;;;;;;;;;;;;;;;17.53;78.38;98420.97;5070419;28;19924;-57
2022/10/16 18:00:28;;;;;;;;;;;;;;;17.51;78.44;98423.25;5078977;28;19924;-57
2022/10/16 18:03:20;;;;;;;;;;;;;;;17.49;78.58;98428.28;5045156;28;19972;-57
2022/10/16 18:05:50;;;;;;;;;;;;;;;17.44;78.95;98425.78;5042913;28;19924;-57
2022/10/16 18:08:18;;;;;;;;;;;;;;;17.42;79.02;98430.81;5049819;28;19925;-57
2022/10/16 18:10:47;;;;;;;;;;;;;;;17.39;78.64;98428.75;5046123;28;19933;-57
2022/10/16 18:13:15;;;;;;;;;;;;;;;17.38;78.78;98430.69;5043555;28;20439;-57
2022/10/16 18:15:43;;;;;;;;;;;;;;;17.38;78.81;98435.41;5044574;28;19925;-57
2022/10/16 18:21:06;;;;;;;;;;;;;;;17.30;78.57;98428.84;5044796;28;19960;-64
2022/10/16 18:23:34;;;;;;;;;;;;;;;17.29;78.83;98430.81;5042417;28;20330;-57
2022/10/16 18:26:02;;;;;;;;;;;;;;;17.29;78.76;98432.75;5046790;28;19931;-57
2022/10/16 18:28:31;;;;;;;;;;;;;;;17.26;79.35;98434.25;5038509;28;19980;-57
2022/10/16 18:30:59;;;;;;;;;;;;;;;17.26;79.06;98439.75;5035240;28;19928;-57
2022/10/16 18:33:29;;;;;;;;;;;;;;;17.23;79.08;98439.63;5039986;28;19925;-57
2022/10/16 18:36:00;;;;;;;;;;;;;;;17.22;79.11;98449.81;5046036;28;20329;-57
2022/10/16 18:38:30;;;;;;;;;;;;;;;17.20;79.63;98446.56;5050544;28;20030;-57
2022/10/16 18:41:00;;;;;;;;;;;;;;;17.13;79.01;98440.84;5042920;28;19933;-57
2022/10/16 18:43:28;;;;;;;;;;;;;;;17.14;79.31;98442.47;5059574;28;19926;-57
2022/10/16 18:45:57;;;;;;;;;;;;;;;17.14;79.53;98447.16;5038941;28;19931;-57
2022/10/16 18:48:25;;;;;;;;;;;;;;;17.12;79.63;98447.50;5042620;28;20402;-57
2022/10/16 18:50:53;;;;;;;;;;;;;;;17.07;79.01;98449.66;5043469;28;19971;-57
2022/10/16 18:53:24;;;;;;;;;;;;;;;17.06;78.81;98445.31;5038359;28;19933;-61
2022/10/16 18:55:54;;;;;;;;;;;;;;;17.06;78.83;98451.63;5053514;28;19932;-56
2022/10/16 18:58:22;;;;;;;;;;;;;;;17.06;78.88;98450.81;5046045;28;19987;-57
2022/10/16 19:00:50;;;;;;;;;;;;;;;17.05;79.10;98460.19;5031795;28;19925;-57
2022/10/16 19:03:18;;;;;;;;;;;;;;;17.00;79.02;98453.78;5042719;28;19925;-58
2022/10/16 19:05:46;;;;;;;;;;;;;;;17.00;79.02;98459.25;5046367;28;20400;-57
2022/10/16 19:08:14;;;;;;;;;;;;;;;16.96;79.38;98463.81;5041836;28;19933;-57
2022/10/16 19:10:42;;;;;;;;;;;;;;;16.95;79.52;98464.97;5022534;28;20378;-57
2022/10/16 19:13:11;;;;;;;;;;;;;;;16.92;79.75;98476.63;5042544;28;20371;-57
2022/10/16 19:15:43;;;;;;;;;;;;;;;16.91;79.89;98471.47;5035233;28;20322;-57
2022/10/16 19:18:16;;;;;;;;;;;;;;;16.85;80.07;98479.13;5057546;28;19936;-57
2022/10/16 19:20:44;;;;;;;;;;;;;;;16.79;80.64;98485.16;5066286;28;21550;-57
2022/10/16 19:23:12;;;;;;;;;;;;;;;16.74;80.65;98492.47;5054373;28;19929;-57
2022/10/16 19:25:40;;;;;;;;;;;;;;;16.70;80.64;98483.28;5052466;28;20344;-57
2022/10/16 19:28:13;;;;;;;;;;;;;;;16.67;80.71;98489.44;5048352;28;19932;-57
2022/10/16 19:30:45;;;;;;;;;;;;;;;16.61;80.80;98485.28;5057771;28;19929;-57
2022/10/16 19:33:15;;;;;;;;;;;;;;;16.56;81.01;98492.91;5071503;28;19925;-58
2022/10/16 19:35:43;;;;;;;;;;;;;;;16.50;81.21;98487.63;5068131;28;19924;-57
2022/10/16 19:38:11;;;;;;;;;;;;;;;16.46;81.33;98489.47;5054635;28;20438;-57
2022/10/16 19:40:39;;;;;;;;;;;;;;;16.42;81.57;98493.22;5072146;28;20023;-57
2022/10/16 19:43:07;;;;;;;;;;;;;;;16.35;81.76;98490.19;5072902;28;19925;-58
2022/10/16 19:45:35;;;;;;;;;;;;;;;16.31;81.77;98494.75;5066432;28;19928;-57
2022/10/16 19:48:04;;;;;;;;;;;;;;;16.28;81.62;98492.66;5072957;28;20305;-58
2022/10/16 19:50:32;;;;;;;;;;;;;;;16.25;81.81;98488.69;5071751;28;20019;-57
2022/10/16 19:53:01;;;;;;;;;;;;;;;16.18;81.99;98482.91;5069854;28;19970;-57
2022/10/16 19:55:31;;;;;;;;;;;;;;;16.14;82.21;98488.28;5071674;28;19931;-57
2022/10/16 19:57:58;;;;;;;;;;;;;;;16.08;82.57;98486.84;5072131;28;19931;-57
2022/10/16 20:00:26;;;;;;;;;;;;;;;16.05;82.59;98484.78;5062905;28;20360;-57
2022/10/16 20:05:51;;;;;;;;;;;;;;;15.99;82.86;98486.13;5048919;28;19998;-57
2022/10/16 20:08:20;;;;;;;;;;;;;;;15.97;83.00;98493.84;5051945;28;19932;-57
2022/10/16 20:10:49;;;;;;;;;;;;;;;15.94;82.85;98497.28;5053362;28;20016;-57
2022/10/16 20:13:17;;;;;;;;;;;;;;;15.90;83.05;98501.81;5033362;28;19929;-57
2022/10/16 20:15:45;;;;;;;;;;;;;;;15.88;82.86;98506.81;5054510;28;19928;-57
2022/10/16 20:18:12;;;;;;;;;;;;;;;15.83;83.05;98496.84;5070270;28;19978;-57
2022/10/16 20:20:41;;;;;;;;;;;;;;;15.83;83.16;98507.00;5071958;28;20460;-57
2022/10/16 20:23:10;;;;;;;;;;;;;;;15.80;82.97;98510.41;5071828;28;19925;-57
2022/10/16 20:25:39;;;;;;;;;;;;;;;15.80;82.67;98513.13;5071623;28;19962;-57
2022/10/16 20:28:12;;;;;;;;;;;;;;;15.77;82.44;98519.28;5072359;28;20373;-57
2022/10/16 20:30:41;;;;;;;;;;;;;;;15.78;82.68;98516.22;5067939;28;20404;-57
2022/10/16 20:33:10;;;;;;;;;;;;;;;15.77;82.55;98513.81;5065328;28;19971;-57
2022/10/16 20:35:38;;;;;;;;;;;;;;;15.73;82.67;98521.09;5069023;28;19940;-57
2022/10/16 20:38:06;;;;;;;;;;;;;;;15.69;82.67;98521.72;5071913;28;20066;-57
2022/10/16 20:40:36;;;;;;;;;;;;;;;15.67;82.62;98526.75;5066870;28;20321;-57
2022/10/16 20:43:05;;;;;;;;;;;;;;;15.65;82.64;98520.78;5069063;28;20450;-57
2022/10/16 20:45:33;;;;;;;;;;;;;;;15.61;82.67;98525.31;5065270;28;20020;-57
2022/10/16 20:48:01;;;;;;;;;;;;;;;15.60;82.74;98528.34;5071658;28;20007;-57
2022/10/16 20:50:30;;;;;;;;;;;;;;;15.58;82.88;98528.69;5071303;28;19970;-57
2022/10/16 20:52:58;;;;;;;;;;;;;;;15.54;83.04;98533.19;5059651;28;20049;-57
2022/10/16 20:55:26;;;;;;;;;;;;;;;15.49;83.25;98533.38;5071252;28;19925;-57
2022/10/16 20:57:56;;;;;;;;;;;;;;;15.50;83.25;98543.22;5071041;28;19963;-57
2022/10/16 21:00:24;;;;;;;;;;;;;;;15.51;83.26;98544.84;5067107;28;19932;-56
2022/10/16 21:05:44;;;;;;;;;;;;;;;15.44;83.63;98541.78;5055336;28;19943;-57
2022/10/16 21:08:13;;;;;;;;;;;;;;;15.41;83.52;98539.72;5069801;28;19951;-57
2022/10/16 21:10:41;;;;;;;;;;;;;;;15.40;83.46;98540.84;5070529;28;20089;-57
2022/10/16 21:13:11;;;;;;;;;;;;;;;15.38;83.49;98545.84;5053148;28;19924;-57
2022/10/16 21:15:39;;;;;;;;;;;;;;;15.39;83.59;98539.22;5064608;28;19947;-57
2022/10/16 21:18:06;;;;;;;;;;;;;;;15.40;83.43;98543.59;5053264;28;20377;-57
2022/10/16 21:20:35;;;;;;;;;;;;;;;15.39;83.42;98545.53;5070828;28;20019;-57
2022/10/16 21:23:04;;;;;;;;;;;;;;;15.38;83.34;98549.38;5053499;28;20011;-57
2022/10/16 21:25:32;;;;;;;;;;;;;;;15.35;83.22;98547.31;5064591;28;19928;-57
2022/10/16 21:28:25;;;;;;;;;;;;;;;15.33;83.38;98562.44;5070877;28;19924;-57
2022/10/16 21:30:55;;;;;;;;;;;;;;;15.28;83.46;98555.19;5055442;28;20378;-57
2022/10/16 21:33:24;;;;;;;;;;;;;;;15.25;83.47;98557.81;5070550;28;19925;-56
2022/10/16 21:35:52;;;;;;;;;;;;;;;15.23;83.53;98562.78;5070843;28;19930;-57
2022/10/16 21:38:20;;;;;;;;;;;;;;;15.20;83.52;98565.03;5071050;28;19932;-57
2022/10/16 21:40:48;;;;;;;;;;;;;;;15.19;83.76;98568.91;5069998;28;19924;-57
2022/10/16 21:43:21;;;;;;;;;;;;;;;15.19;83.74;98570.84;5070704;28;19975;-57
2022/10/16 21:45:49;;;;;;;;;;;;;;;15.16;83.87;98580.50;5066392;28;19931;-57
2022/10/16 21:48:19;;;;;;;;;;;;;;;15.16;83.87;98571.50;5070565;28;20388;-57
2022/10/16 21:50:47;;;;;;;;;;;;;;;15.15;83.81;98573.44;5078451;28;19954;-57
2022/10/16 21:53:16;;;;;;;;;;;;;;;15.16;83.78;98572.28;5070930;28;19931;-58
2022/10/16 21:55:44;;;;;;;;;;;;;;;15.08;83.91;98573.13;5070459;28;19955;-57
2022/10/16 21:58:11;;;;;;;;;;;;;;;15.08;83.94;98570.41;5071652;28;19963;-57
2022/10/16 22:00:39;;;;;;;;;;;;;;;15.03;83.83;98570.56;5061410;28;19931;-57
2022/10/16 22:03:07;;;;;;;;;;;;;;;15.01;84.01;98577.47;5068139;28;20027;-57
2022/10/16 22:05:39;;;;;;;;;;;;;;;14.97;84.15;98574.59;5069136;28;19931;-57
2022/10/16 22:08:07;;;;;;;;;;;;;;;14.99;84.26;98575.06;5065237;28;19928;-57
2022/10/16 22:10:35;;;;;;;;;;;;;;;14.93;84.33;98581.84;5065279;28;19925;-57
2022/10/16 22:13:03;;;;;;;;;;;;;;;14.94;84.35;98581.50;5073083;28;20075;-57
2022/10/16 22:15:33;;;;;;;;;;;;;;;14.97;84.46;98571.03;5064814;28;19933;-56